createdAt,value
2022-11-30T00:01:13.703Z,22.95
2022-11-30T00:03:41.614Z,23.27
2022-11-30T00:06:11.311Z,24.23
2022-11-30T00:08:39.247Z,23.73
2022-11-30T00:11:11.282Z,22.67
2022-11-30T00:13:39.232Z,23.83
2022-11-30T00:16:08.097Z,24.15
2022-11-30T00:18:37.835Z,23.17
2022-11-30T00:21:08.618Z,24.30
2022-11-30T00:23:38.073Z,23.90
2022-11-30T00:26:07.728Z,22.60
2022-11-30T00:28:37.592Z,23.90
2022-11-30T00:31:08.157Z,25.75
2022-11-30T00:33:38.512Z,23.50
2022-11-30T00:36:08.562Z,22.55
2022-11-30T00:38:36.853Z,22.75
2022-11-30T00:41:04.726Z,25.23
2022-11-30T00:43:32.781Z,23.95
2022-11-30T00:46:00.652Z,23.42
2022-11-30T00:48:28.404Z,23.95
2022-11-30T00:50:57.752Z,25.08
2022-11-30T00:53:25.518Z,23.55
2022-11-30T00:55:53.251Z,23.70
2022-11-30T00:58:20.968Z,22.50
2022-11-30T01:00:48.707Z,23.13
2022-11-30T01:03:16.422Z,22.98
2022-11-30T01:05:44.226Z,22.60
2022-11-30T01:08:14.046Z,23.23
2022-11-30T01:10:43.284Z,23.40
2022-11-30T01:13:12.742Z,22.83
2022-11-30T01:15:42.947Z,22.92
2022-11-30T01:18:11.213Z,22.85
2022-11-30T01:20:42.362Z,23.73
2022-11-30T01:23:10.187Z,23.77
2022-11-30T01:25:39.448Z,24.85
2022-11-30T01:28:07.073Z,23.88
2022-11-30T01:30:34.950Z,22.33
2022-11-30T01:33:03.668Z,22.98
2022-11-30T01:35:31.392Z,22.17
2022-11-30T01:37:59.080Z,24.75
2022-11-30T01:40:26.953Z,21.50
2022-11-30T01:42:55.953Z,23.98
2022-11-30T01:45:23.945Z,22.08
2022-11-30T01:47:56.560Z,22.98
2022-11-30T01:50:29.416Z,23.70
2022-11-30T01:52:58.805Z,22.27
2022-11-30T01:55:30.597Z,20.95
2022-11-30T01:58:05.171Z,22.55
2022-11-30T02:00:33.390Z,23.92
2022-11-30T02:03:04.093Z,21.98
2022-11-30T02:05:34.121Z,23.45
2022-11-30T02:08:02.336Z,20.63
2022-11-30T02:10:33.245Z,21.83
2022-11-30T02:13:38.580Z,21.27
2022-11-30T02:16:16.747Z,19.58
2022-11-30T02:18:55.082Z,21.95
2022-11-30T02:21:27.902Z,19.95
2022-11-30T02:24:14.733Z,20.63
2022-11-30T02:27:16.051Z,19.70
2022-11-30T02:29:50.367Z,19.33
2022-11-30T02:32:22.940Z,20.23
2022-11-30T02:34:52.197Z,19.80
2022-11-30T02:37:22.317Z,18.63
2022-11-30T02:39:49.981Z,18.52
2022-11-30T02:42:18.077Z,20.45
2022-11-30T02:44:50.183Z,19.10
2022-11-30T02:47:24.837Z,19.05
2022-11-30T02:49:57.448Z,18.80
2022-11-30T02:52:27.521Z,17.88
2022-11-30T02:54:59.619Z,18.67
2022-11-30T02:57:27.251Z,17.80
2022-11-30T02:59:56.657Z,17.25
2022-11-30T03:02:24.416Z,16.90
2022-11-30T03:04:52.138Z,16.60
2022-11-30T03:07:19.999Z,16.55
2022-11-30T03:09:47.702Z,15.80
2022-11-30T03:12:15.353Z,16.13
2022-11-30T03:14:43.036Z,16.98
2022-11-30T03:17:12.128Z,17.33
2022-11-30T03:19:39.779Z,16.25
2022-11-30T03:22:07.625Z,16.05
2022-11-30T03:24:35.327Z,15.15
2022-11-30T03:27:03.334Z,15.82
2022-11-30T03:29:31.024Z,15.40
2022-11-30T03:31:58.689Z,15.85
2022-11-30T03:34:28.577Z,15.10
2022-11-30T03:36:56.675Z,15.52
2022-11-30T03:39:24.547Z,14.80
2022-11-30T03:41:52.241Z,14.45
2022-11-30T03:44:20.449Z,14.32
2022-11-30T03:46:48.159Z,14.07
2022-11-30T03:49:15.873Z,13.25
2022-11-30T03:51:44.959Z,14.38
2022-11-30T03:54:12.605Z,13.73
2022-11-30T03:56:40.322Z,13.57
2022-11-30T03:59:07.998Z,14.32
2022-11-30T04:01:36.931Z,13.32
2022-11-30T04:04:04.803Z,13.70
2022-11-30T04:06:32.524Z,13.50
2022-11-30T04:09:01.549Z,13.35
2022-11-30T04:11:29.445Z,12.55
2022-11-30T04:13:57.084Z,13.77
2022-11-30T04:16:24.860Z,13.07
2022-11-30T04:18:52.604Z,13.35
2022-11-30T04:21:20.345Z,12.13
2022-11-30T04:23:48.007Z,11.93
2022-11-30T04:26:18.161Z,13.20
2022-11-30T04:28:45.884Z,11.90
2022-11-30T04:31:14.250Z,12.85
2022-11-30T04:33:42.085Z,12.18
2022-11-30T04:36:19.966Z,13.35
2022-11-30T04:38:48.211Z,12.07
2022-11-30T04:41:17.332Z,11.85
2022-11-30T04:43:45.035Z,11.93
2022-11-30T04:46:12.769Z,11.23
2022-11-30T04:48:40.589Z,12.43
2022-11-30T04:51:09.773Z,11.20
2022-11-30T04:53:39.017Z,11.30
2022-11-30T04:56:07.977Z,12.00
2022-11-30T04:58:37.160Z,10.82
2022-11-30T05:01:04.881Z,11.52
2022-11-30T05:03:32.545Z,11.63
2022-11-30T05:06:00.237Z,12.52
2022-11-30T05:08:27.958Z,11.27
2022-11-30T05:10:56.457Z,10.38
2022-11-30T05:13:25.973Z,11.82
2022-11-30T05:15:55.301Z,11.38
2022-11-30T05:18:23.092Z,11.55
2022-11-30T05:20:51.868Z,10.68
2022-11-30T05:23:20.125Z,10.60
2022-11-30T05:25:48.454Z,10.52
2022-11-30T05:28:16.786Z,12.13
2022-11-30T05:30:44.740Z,11.38
2022-11-30T05:33:13.811Z,12.65
2022-11-30T05:35:41.450Z,11.95
2022-11-30T05:38:09.114Z,12.05
2022-11-30T05:40:36.874Z,12.07
2022-11-30T05:43:06.029Z,11.55
2022-11-30T05:45:33.733Z,13.00
2022-11-30T05:48:01.410Z,12.88
2022-11-30T05:50:30.650Z,11.73
2022-11-30T05:53:00.978Z,11.85
2022-11-30T05:55:31.017Z,12.90
2022-11-30T05:57:58.811Z,12.10
2022-11-30T06:00:26.601Z,12.45
2022-11-30T06:02:58.261Z,11.95
2022-11-30T06:05:26.437Z,11.77
2022-11-30T06:07:56.258Z,12.73
2022-11-30T06:10:25.281Z,12.40
2022-11-30T06:12:53.651Z,12.88
2022-11-30T06:15:21.366Z,12.48
2022-11-30T06:17:49.000Z,13.23
2022-11-30T06:20:16.770Z,13.32
2022-11-30T06:22:46.720Z,13.05
2022-11-30T06:25:15.991Z,13.35
2022-11-30T06:27:43.977Z,11.75
2022-11-30T06:30:13.181Z,12.70
2022-11-30T06:32:40.849Z,12.93
2022-11-30T06:35:09.229Z,11.82
2022-11-30T06:37:37.035Z,12.65
2022-11-30T06:40:07.617Z,12.40
2022-11-30T06:42:37.899Z,11.50
2022-11-30T06:45:06.943Z,12.15
2022-11-30T06:47:34.603Z,12.10
2022-11-30T06:50:02.295Z,13.10
2022-11-30T06:52:32.203Z,11.45
2022-11-30T06:54:59.905Z,11.85
2022-11-30T06:57:28.845Z,12.20
2022-11-30T06:59:58.352Z,12.35
2022-11-30T07:02:26.133Z,11.93
2022-11-30T07:04:53.864Z,12.05
2022-11-30T07:07:22.201Z,12.90
2022-11-30T07:09:50.686Z,12.27
2022-11-30T07:12:18.370Z,12.55
2022-11-30T07:14:46.454Z,13.38
2022-11-30T07:17:15.683Z,13.13
2022-11-30T07:19:43.408Z,13.18
2022-11-30T07:22:11.070Z,13.55
2022-11-30T07:24:56.101Z,12.48
2022-11-30T07:27:24.049Z,13.20
2022-11-30T07:29:52.463Z,13.18
2022-11-30T07:32:21.513Z,13.48
2022-11-30T07:34:49.462Z,13.40
2022-11-30T07:37:17.791Z,13.07
2022-11-30T07:39:45.531Z,14.13
2022-11-30T07:42:13.226Z,13.00
2022-11-30T07:44:41.395Z,12.10
2022-11-30T07:47:09.108Z,12.75
2022-11-30T07:49:39.717Z,11.63
2022-11-30T07:52:08.327Z,12.82
2022-11-30T07:54:36.153Z,13.48
2022-11-30T07:57:03.840Z,11.95
2022-11-30T07:59:31.535Z,13.35
2022-11-30T08:02:00.471Z,13.10
2022-11-30T08:04:28.333Z,12.02
2022-11-30T08:06:57.426Z,13.57
2022-11-30T08:09:25.125Z,14.00
2022-11-30T08:11:52.850Z,14.02
2022-11-30T08:14:20.640Z,13.10
2022-11-30T08:16:49.048Z,13.60
2022-11-30T08:19:17.047Z,14.40
2022-11-30T08:21:44.797Z,12.40
2022-11-30T08:24:14.551Z,12.57
2022-11-30T08:26:42.709Z,12.65
2022-11-30T08:29:10.951Z,13.05
2022-11-30T08:31:39.362Z,12.95
2022-11-30T08:34:08.857Z,12.70
2022-11-30T08:36:36.702Z,12.60
2022-11-30T08:39:05.975Z,12.77
2022-11-30T08:41:39.045Z,12.95
2022-11-30T08:44:07.252Z,12.70
2022-11-30T08:46:52.412Z,12.68
2022-11-30T08:49:23.606Z,12.18
2022-11-30T08:52:16.463Z,12.05
2022-11-30T08:54:46.204Z,13.40
2022-11-30T08:57:16.413Z,12.73
2022-11-30T08:59:44.287Z,11.57
2022-11-30T09:02:13.333Z,11.45
2022-11-30T09:04:41.107Z,12.10
2022-11-30T09:07:09.513Z,11.25
2022-11-30T09:09:37.765Z,12.15
2022-11-30T09:12:05.736Z,12.45
2022-11-30T09:14:34.769Z,11.55
2022-11-30T09:17:02.465Z,11.57
2022-11-30T09:19:30.387Z,12.95
2022-11-30T09:21:58.060Z,11.48
2022-11-30T09:24:25.721Z,12.57
2022-11-30T09:26:56.251Z,11.52
2022-11-30T09:29:24.284Z,12.70
2022-11-30T09:31:53.413Z,12.82
2022-11-30T09:34:21.251Z,13.63
2022-11-30T09:36:48.988Z,13.65
2022-11-30T09:39:16.704Z,14.00
2022-11-30T09:42:22.941Z,12.57
2022-11-30T09:44:59.466Z,14.02
2022-11-30T09:47:43.650Z,12.55
2022-11-30T09:50:14.968Z,13.68
2022-11-30T09:52:46.108Z,14.27
2022-11-30T09:55:22.076Z,13.10
2022-11-30T09:57:53.839Z,13.35
2022-11-30T10:00:23.386Z,13.95
2022-11-30T10:02:54.399Z,15.60
2022-11-30T10:05:24.606Z,14.52
2022-11-30T10:08:07.739Z,13.82
2022-11-30T10:10:41.178Z,14.43
2022-11-30T10:13:27.867Z,13.65
2022-11-30T10:16:09.774Z,15.50
2022-11-30T10:18:48.970Z,13.82
2022-11-30T10:21:29.606Z,14.77
2022-11-30T10:24:12.062Z,13.77
2022-11-30T10:26:46.596Z,14.30
2022-11-30T10:29:19.786Z,15.00
2022-11-30T10:31:49.656Z,14.23
2022-11-30T10:34:23.964Z,15.30
2022-11-30T10:36:57.355Z,14.68
2022-11-30T10:39:31.701Z,14.50
2022-11-30T10:42:05.673Z,15.40
2022-11-30T10:44:39.955Z,15.63
2022-11-30T10:47:15.329Z,14.55
2022-11-30T10:49:49.300Z,14.38
2022-11-30T10:52:23.818Z,15.02
2022-11-30T10:54:59.141Z,14.75
2022-11-30T10:57:32.402Z,16.00
2022-11-30T11:00:05.215Z,14.80
2022-11-30T11:02:39.998Z,15.20
2022-11-30T11:05:25.965Z,14.90
2022-11-30T11:08:02.831Z,14.07
2022-11-30T11:10:36.842Z,14.63
2022-11-30T11:13:06.135Z,15.95
2022-11-30T11:15:35.807Z,16.98
2022-11-30T11:18:25.321Z,15.02
2022-11-30T11:21:06.840Z,12.98
2022-11-30T11:23:37.378Z,13.35
2022-11-30T11:26:06.413Z,13.45
2022-11-30T11:28:36.366Z,13.02
2022-11-30T11:31:18.655Z,13.02
2022-11-30T11:33:52.493Z,13.02
2022-11-30T11:36:27.374Z,11.27
2022-11-30T11:38:55.148Z,12.38
2022-11-30T11:41:27.832Z,11.68
2022-11-30T11:44:03.062Z,11.75
2022-11-30T11:46:31.540Z,11.25
2022-11-30T11:49:02.603Z,11.77
2022-11-30T11:51:34.066Z,11.75
2022-11-30T11:54:05.733Z,11.18
2022-11-30T11:56:35.970Z,11.27
2022-11-30T11:59:14.163Z,12.13
2022-11-30T12:01:49.728Z,11.23
2022-11-30T12:04:38.916Z,11.55
2022-11-30T12:07:18.017Z,11.18
2022-11-30T12:09:58.254Z,11.38
2022-11-30T12:12:26.007Z,11.68
2022-11-30T12:14:54.865Z,11.57
2022-11-30T12:17:36.246Z,11.52
2022-11-30T12:20:15.029Z,12.40
2022-11-30T12:22:59.649Z,11.95
2022-11-30T12:25:29.648Z,13.02
2022-11-30T12:28:15.054Z,13.07
2022-11-30T12:30:53.928Z,12.68
2022-11-30T12:33:39.063Z,12.90
2022-11-30T12:36:15.094Z,13.60
2022-11-30T12:38:50.237Z,12.48
2022-11-30T12:41:33.066Z,13.13
2022-11-30T12:44:13.078Z,13.77
2022-11-30T12:46:46.492Z,13.85
2022-11-30T12:49:27.794Z,13.60
2022-11-30T12:52:03.543Z,14.75
2022-11-30T12:54:41.231Z,15.27
2022-11-30T12:57:17.099Z,15.20
2022-11-30T12:59:53.270Z,15.23
2022-11-30T13:02:46.863Z,14.85
2022-11-30T13:05:21.293Z,14.00
2022-11-30T13:07:54.761Z,15.70
2022-11-30T13:10:30.273Z,13.60
2022-11-30T13:13:01.185Z,13.75
2022-11-30T13:15:31.792Z,13.52
2022-11-30T13:18:01.813Z,13.70
2022-11-30T13:20:38.937Z,14.55
2022-11-30T13:23:13.293Z,13.55
2022-11-30T13:28:58.684Z,13.50
2022-11-30T13:31:29.633Z,12.63
2022-11-30T13:34:01.248Z,12.88
2022-11-30T13:36:35.864Z,13.35
2022-11-30T13:39:31.483Z,12.95
2022-11-30T13:42:37.986Z,12.38
2022-11-30T13:45:28.569Z,11.63
2022-11-30T13:47:57.644Z,11.65
2022-11-30T13:50:34.069Z,12.52
2022-11-30T13:53:20.364Z,11.45
2022-11-30T13:56:02.215Z,13.15
2022-11-30T13:58:32.317Z,11.40
2022-11-30T14:01:25.401Z,10.98
2022-11-30T14:04:30.157Z,11.65
2022-11-30T14:06:59.414Z,12.13
2022-11-30T14:09:59.699Z,11.52
2022-11-30T14:13:01.001Z,12.60
2022-11-30T14:15:55.570Z,12.00
2022-11-30T14:18:28.518Z,11.30
2022-11-30T14:21:01.012Z,11.73
2022-11-30T14:23:32.668Z,11.63
2022-11-30T14:26:09.099Z,11.75
2022-11-30T14:28:42.380Z,12.00
2022-11-30T14:31:17.110Z,12.73
2022-11-30T14:33:50.321Z,11.65
2022-11-30T14:36:20.220Z,11.63
2022-11-30T14:38:47.888Z,11.55
2022-11-30T14:41:23.851Z,12.13
2022-11-30T14:44:02.341Z,11.77
2022-11-30T14:46:33.673Z,11.05
2022-11-30T14:49:13.357Z,12.60
2022-11-30T14:51:42.358Z,12.60
2022-11-30T14:54:21.405Z,11.45
2022-11-30T14:56:51.413Z,11.63
2022-11-30T14:59:32.214Z,12.68
2022-11-30T15:02:03.418Z,11.98
2022-11-30T15:04:31.899Z,11.43
2022-11-30T15:07:00.308Z,11.07
2022-11-30T15:09:31.562Z,11.52
2022-11-30T15:11:59.977Z,11.13
2022-11-30T15:14:27.764Z,12.35
2022-11-30T15:16:58.201Z,12.25
2022-11-30T15:19:30.138Z,11.98
2022-11-30T15:22:07.810Z,12.45
2022-11-30T15:24:36.193Z,11.32
2022-11-30T15:27:11.111Z,12.30
2022-11-30T15:29:43.665Z,12.35
2022-11-30T15:32:18.295Z,11.77
2022-11-30T15:34:56.111Z,12.00
2022-11-30T15:37:30.768Z,11.77
2022-11-30T15:40:00.904Z,12.25
2022-11-30T15:42:31.402Z,12.15
2022-11-30T15:45:14.937Z,12.30
2022-11-30T15:47:42.730Z,12.10
2022-11-30T15:50:43.111Z,11.85
2022-11-30T15:53:31.992Z,12.30
2022-11-30T15:56:02.362Z,12.60
2022-11-30T15:58:33.709Z,12.27
2022-11-30T16:01:05.394Z,14.20
2022-11-30T16:03:34.743Z,12.00
2022-11-30T16:06:05.934Z,11.57
2022-11-30T16:08:34.117Z,11.38
2022-11-30T16:11:07.474Z,11.05
2022-11-30T16:13:35.795Z,10.80
2022-11-30T16:16:03.655Z,10.43
2022-11-30T16:18:32.087Z,10.27
2022-11-30T16:21:02.521Z,9.32
2022-11-30T16:23:35.417Z,9.10
2022-11-30T16:26:03.168Z,8.02
2022-11-30T16:28:30.830Z,6.88
2022-11-30T16:31:01.576Z,7.10
2022-11-30T16:33:29.237Z,7.15
2022-11-30T16:35:59.361Z,6.55
2022-11-30T16:38:27.944Z,6.80
2022-11-30T16:41:10.711Z,6.50
2022-11-30T16:43:40.321Z,7.15
2022-11-30T16:46:10.675Z,6.05
2022-11-30T16:48:38.617Z,5.63
2022-11-30T16:51:06.934Z,6.30
2022-11-30T16:53:34.680Z,6.18
2022-11-30T16:56:03.720Z,5.90
2022-11-30T16:58:31.429Z,5.72
2022-11-30T17:01:00.281Z,5.00
2022-11-30T17:03:31.072Z,4.97
2022-11-30T17:05:58.781Z,5.82
2022-11-30T17:08:26.446Z,5.60
2022-11-30T17:10:55.845Z,5.63
2022-11-30T17:13:24.898Z,4.90
2022-11-30T17:15:52.579Z,5.22
2022-11-30T17:18:20.272Z,5.32
2022-11-30T17:20:47.997Z,5.20
2022-11-30T17:23:15.783Z,5.55
2022-11-30T17:25:43.613Z,6.10
2022-11-30T17:28:11.365Z,5.50
2022-11-30T17:30:40.594Z,5.60
2022-11-30T17:33:08.272Z,6.80
2022-11-30T17:35:39.259Z,6.78
2022-11-30T17:38:07.036Z,6.25
2022-11-30T17:40:35.366Z,6.80
2022-11-30T17:43:03.148Z,7.43
2022-11-30T17:45:30.928Z,7.10
2022-11-30T17:48:00.521Z,7.53
2022-11-30T17:50:28.212Z,8.00
2022-11-30T17:52:55.916Z,7.03
2022-11-30T17:55:23.599Z,7.40
2022-11-30T17:57:51.318Z,7.95
2022-11-30T18:00:20.313Z,7.07
2022-11-30T18:02:51.006Z,7.43
2022-11-30T18:05:20.989Z,7.20
2022-11-30T18:07:48.965Z,7.93
2022-11-30T18:10:16.827Z,7.93
2022-11-30T18:12:44.725Z,8.18
2022-11-30T18:15:12.636Z,7.78
2022-11-30T18:17:40.371Z,8.38
2022-11-30T18:20:09.171Z,8.68
2022-11-30T18:22:38.201Z,7.47
2022-11-30T18:25:06.457Z,8.13
2022-11-30T18:27:34.157Z,8.88
2022-11-30T18:30:05.996Z,9.45
2022-11-30T18:32:37.189Z,8.25
2022-11-30T18:35:05.387Z,9.27
2022-11-30T18:37:33.878Z,9.20
2022-11-30T18:40:03.414Z,9.60
2022-11-30T18:42:31.107Z,9.75
2022-11-30T18:44:58.780Z,9.13
2022-11-30T18:47:26.425Z,10.43
2022-11-30T18:49:54.235Z,10.35
2022-11-30T18:52:22.068Z,10.07
2022-11-30T18:54:49.973Z,11.05
2022-11-30T18:57:19.237Z,10.15
2022-11-30T18:59:49.813Z,10.05
2022-11-30T19:02:21.607Z,11.70
2022-11-30T19:04:49.587Z,11.18
2022-11-30T19:07:17.537Z,11.55
2022-11-30T19:09:46.028Z,10.45
2022-11-30T19:12:13.706Z,11.93
2022-11-30T19:14:45.231Z,10.68
2022-11-30T19:17:13.220Z,12.43
2022-11-30T19:19:41.036Z,11.05
2022-11-30T19:22:08.764Z,11.73
2022-11-30T19:24:36.462Z,11.60
2022-11-30T19:27:04.213Z,11.45
2022-11-30T19:29:31.909Z,12.00
2022-11-30T19:32:00.962Z,11.93
2022-11-30T19:34:28.623Z,11.38
2022-11-30T19:36:56.298Z,11.70
2022-11-30T19:39:23.941Z,12.07
2022-11-30T19:41:51.654Z,10.77
2022-11-30T19:44:19.444Z,12.10
2022-11-30T19:46:47.234Z,11.95
2022-11-30T19:49:16.301Z,11.55
2022-11-30T19:51:44.178Z,10.43
2022-11-30T19:54:11.901Z,11.48
2022-11-30T19:56:41.822Z,11.05
2022-11-30T19:59:09.673Z,11.85
2022-11-30T20:01:37.560Z,12.50
2022-11-30T20:04:05.963Z,11.57
2022-11-30T20:06:37.518Z,12.32
2022-11-30T20:09:07.380Z,11.32
2022-11-30T20:11:35.624Z,10.95
2022-11-30T20:14:03.656Z,11.65
2022-11-30T20:16:31.417Z,11.55
2022-11-30T20:19:01.699Z,11.30
2022-11-30T20:21:31.039Z,11.15
2022-11-30T20:24:01.545Z,10.35
2022-11-30T20:26:31.557Z,11.38
2022-11-30T20:29:00.848Z,11.73
2022-11-30T20:31:29.792Z,12.40
2022-11-30T20:33:57.553Z,11.93
2022-11-30T20:36:25.385Z,11.85
2022-11-30T20:38:53.455Z,12.63
2022-11-30T20:41:24.541Z,12.75
2022-11-30T20:43:53.105Z,11.88
2022-11-30T20:46:23.429Z,12.02
2022-11-30T20:48:51.729Z,12.05
2022-11-30T20:51:36.599Z,10.80
2022-11-30T20:54:07.126Z,12.10
2022-11-30T20:56:37.638Z,11.40
2022-11-30T20:59:06.919Z,11.88
2022-11-30T21:01:34.981Z,11.35
2022-11-30T21:04:02.889Z,12.23
2022-11-30T21:06:30.930Z,11.70
2022-11-30T21:08:59.266Z,12.02
2022-11-30T21:11:28.187Z,11.15
2022-11-30T21:13:58.430Z,11.90
2022-11-30T21:16:29.036Z,12.23
2022-11-30T21:18:58.550Z,11.23
2022-11-30T21:21:28.507Z,11.75
2022-11-30T21:23:57.817Z,11.57
2022-11-30T21:26:28.717Z,13.07
2022-11-30T21:29:02.284Z,12.05
2022-11-30T21:31:30.775Z,12.73
2022-11-30T21:33:59.021Z,12.13
2022-11-30T21:36:26.821Z,11.95
2022-11-30T21:39:02.654Z,13.10
2022-11-30T21:41:32.086Z,11.98
2022-11-30T21:44:01.115Z,11.70
2022-11-30T21:46:28.884Z,12.48
2022-11-30T21:48:56.600Z,12.45
2022-11-30T21:51:26.050Z,12.32
2022-11-30T21:53:55.181Z,13.23
2022-11-30T21:56:24.875Z,12.73
2022-11-30T21:58:53.057Z,12.00
2022-11-30T22:01:25.165Z,12.82
2022-11-30T22:03:53.976Z,12.55
2022-11-30T22:06:21.751Z,12.45
2022-11-30T22:08:49.477Z,11.98
2022-11-30T22:11:18.691Z,13.18
2022-11-30T22:13:50.008Z,12.75
2022-11-30T22:16:18.501Z,13.45
2022-11-30T22:18:48.147Z,13.48
2022-11-30T22:21:17.747Z,13.95
2022-11-30T22:23:47.122Z,13.88
2022-11-30T22:26:17.585Z,13.65
2022-11-30T22:28:48.317Z,11.45
2022-11-30T22:31:18.797Z,13.07
2022-11-30T22:33:48.422Z,12.70
2022-11-30T22:36:19.032Z,13.15
2022-11-30T22:38:47.376Z,13.20
2022-11-30T22:41:17.626Z,13.30
2022-11-30T22:43:47.082Z,13.02
2022-11-30T22:46:16.818Z,13.95
2022-11-30T22:48:45.330Z,13.73
2022-11-30T22:51:16.381Z,14.43
2022-11-30T22:53:44.839Z,15.45
2022-11-30T22:56:14.311Z,14.10
2022-11-30T22:58:43.106Z,15.70
2022-11-30T23:01:12.158Z,15.07
2022-11-30T23:03:41.192Z,16.15
2022-11-30T23:06:15.321Z,15.85
2022-11-30T23:08:43.995Z,16.08
2022-11-30T23:11:14.274Z,14.52
2022-11-30T23:13:43.041Z,15.90
2022-11-30T23:16:11.796Z,16.13
2022-11-30T23:18:41.201Z,15.30
2022-11-30T23:21:11.926Z,14.82
2022-11-30T23:23:41.120Z,17.00
2022-11-30T23:26:10.601Z,13.68
2022-11-30T23:28:40.884Z,14.35
2022-11-30T23:31:10.250Z,16.88
2022-11-30T23:33:57.836Z,15.55
2022-11-30T23:36:25.725Z,15.40
2022-11-30T23:38:58.498Z,14.68
2022-11-30T23:41:27.096Z,15.23
2022-11-30T23:43:55.170Z,15.43
2022-11-30T23:46:23.352Z,16.10
2022-11-30T23:48:53.460Z,15.73
2022-11-30T23:51:21.201Z,14.73
2022-11-30T23:53:48.976Z,16.17
2022-11-30T23:56:19.717Z,16.88
2022-11-30T23:58:47.660Z,14.85
